サイパン島 の空港の天気 - METARとTAF

サイパン国際空港 ( PGSN / SPN ) - 北マリアナ諸島 サイパン島
飛行場実況気象(Metar)
観測時間09/28 18:54 ChST (09/28 08:54 UTC)
風向・風速西南西 4m/s
視程10km以上
天気現象弱い雨
少しの雲 雲底高度 670m
全天の4割程度の雲 雲底高度 1490m
全天の8割程度の雲 雲底高度 1830m
気温28.3℃
湿度88%
気圧1009.5hPa
METARPGSN 280854Z 25007KT 10SM -RA FEW022 SCT049 BKN060 28/26 A2975 RMK AO2 RAB20E29B48 SLP095 P0000 60000 T02830261 53013
過去の天気等 Google飛行場航空写真 Wunderground天気予報

過去48時間のMETAR

飛行場予報(TAF)
発表時間: 9/28 19:23 ChST (9/28 09:23 UTC)
予報対象時間: 28日19時 ChST ~ 29日16時 ChST
風向・風速南南西 6m/s
視程10km以上
天気現象周辺でしゅう雨
全天の4割程度の雲 雲底高度 610m
全天の4割程度の雲 雲底高度 1830m
PGSN 280923Z 2809/2906 21011KT P6SM VCSH SCT020 SCT060